Time;durP1;ratioP1;P1;durP2;ratioP2;P2;SDS_P1;SDS_P2;PMS_P1;PMS_P2;Temp;Humidity;BMP_temperature;BMP_pressure;BME280_temperature;BME280_humidity;BME280_pressure;Samples;Min_cycle;Max_cycle;Signal;HPM_P1;HPM_P2
2021/06/20 00:00:16;;;;;;;2.95;2.20;;;24.40;37.70;;;;;;4909502;29;20646;-87
2021/06/20 00:02:43;;;;;;;3.30;2.42;;;24.40;37.90;;;;;;4925469;28;20038;-86
2021/06/20 00:05:12;;;;;;;4.95;2.55;;;24.40;38.10;;;;;;4909264;28;20122;-87
2021/06/20 00:07:45;;;;;;;3.25;2.53;;;24.40;38.20;;;;;;4894511;28;20433;-90
2021/06/20 00:10:19;;;;;;;5.38;2.47;;;24.30;38.40;;;;;;4910829;29;20035;-87
2021/06/20 00:12:45;;;;;;;2.67;2.33;;;24.40;38.50;;;;;;4912614;29;20055;-87
2021/06/20 00:15:14;;;;;;;4.20;2.50;;;24.30;38.60;;;;;;4910370;28;20413;-87
2021/06/20 00:17:40;;;;;;;5.05;2.40;;;24.30;38.60;;;;;;4911102;29;20176;-88
2021/06/20 00:20:07;;;;;;;;;;;24.30;38.90;;;;;;4926302;29;20039;-87
2021/06/20 00:22:34;;;;;;;3.97;3.00;;;24.30;38.80;;;;;;4925046;29;19929;-87
2021/06/20 00:25:01;;;;;;;4.10;2.72;;;24.30;38.80;;;;;;4924786;29;20054;-86
2021/06/20 00:27:27;;;;;;;4.28;2.72;;;24.20;39.10;;;;;;4908867;28;20038;-91
2021/06/20 00:29:53;;;;;;;5.70;2.60;;;24.20;39.30;;;;;;4925669;29;20042;-89
2021/06/20 00:32:20;;;;;;;7.88;3.75;;;24.20;39.60;;;;;;4909715;29;20420;-87
2021/06/20 00:34:46;;;;;;;4.50;2.78;;;24.20;39.80;;;;;;4925325;29;20038;-87
2021/06/20 00:37:13;;;;;;;4.10;2.78;;;24.20;40.00;;;;;;4992316;28;20411;-87
2021/06/20 00:39:39;;;;;;;6.32;2.60;;;24.20;40.00;;;;;;4908907;29;20034;-88
2021/06/20 00:42:05;;;;;;;4.95;2.85;;;24.10;40.10;;;;;;4924647;28;20605;-87
2021/06/20 00:44:46;;;;;;;4.57;2.97;;;24.10;40.30;;;;;;4908646;29;20141;-87
2021/06/20 00:47:12;;;;;;;3.25;2.78;;;24.10;40.60;;;;;;4913761;29;20055;-87
2021/06/20 00:49:39;;;;;;;5.20;2.70;;;24.10;40.60;;;;;;4933129;29;20038;-87
2021/06/20 00:52:05;;;;;;;5.85;3.00;;;24.20;40.70;;;;;;4910296;28;20128;-87
2021/06/20 00:54:32;;;;;;;6.65;3.50;;;24.20;40.70;;;;;;4894390;28;20039;-86
2021/06/20 00:56:58;;;;;;;6.50;2.97;;;24.20;40.70;;;;;;4928913;28;20074;-87
2021/06/20 00:59:24;;;;;;;6.22;2.85;;;24.20;40.70;;;;;;4927504;29;20034;-88
2021/06/20 01:01:51;;;;;;;3.90;2.85;;;24.20;40.60;;;;;;4927738;29;20038;-87
2021/06/20 01:04:17;;;;;;;6.50;3.85;;;24.20;40.60;;;;;;4942218;29;20041;-86
2021/06/20 01:06:43;;;;;;;4.38;3.15;;;24.30;40.70;;;;;;4911510;28;20065;-87
2021/06/20 01:09:09;;;;;;;4.03;2.78;;;24.30;40.60;;;;;;4925523;29;20066;-85
2021/06/20 01:11:36;;;;;;;3.28;2.70;;;24.30;40.50;;;;;;4908857;28;20038;-85
2021/06/20 01:14:03;;;;;;;4.80;2.70;;;24.30;40.40;;;;;;4941210;28;20058;-85
2021/06/20 01:16:30;;;;;;;3.22;2.72;;;24.40;40.40;;;;;;4925026;29;20031;-86
2021/06/20 01:18:56;;;;;;;6.70;2.85;;;24.40;40.40;;;;;;4927142;29;20034;-86
2021/06/20 01:21:23;;;;;;;;;;;24.50;40.30;;;;;;4912727;29;20045;-85
2021/06/20 01:23:49;;;;;;;6.05;3.00;;;24.50;40.10;;;;;;4896376;28;19969;-86
2021/06/20 01:26:15;;;;;;;3.40;2.80;;;24.60;39.90;;;;;;4911134;29;20047;-86
2021/06/20 01:28:50;;;;;;;2.95;2.55;;;24.60;39.90;;;;;;4926247;29;20072;-86
2021/06/20 01:31:17;;;;;;;8.35;3.00;;;24.60;39.90;;;;;;4918224;29;20043;-85
2021/06/20 01:33:44;;;;;;;5.47;2.88;;;24.70;39.80;;;;;;4918513;28;20551;-86
2021/06/20 01:36:11;;;;;;;8.27;3.70;;;24.80;40.00;;;;;;4923887;29;20038;-87
2021/06/20 01:38:38;;;;;;;3.38;2.70;;;24.80;39.80;;;;;;4936440;29;20046;-85
2021/06/20 01:41:04;;;;;;;8.05;3.20;;;24.90;39.70;;;;;;4905670;29;20501;-84
2021/06/20 01:43:30;;;;;;;5.45;2.72;;;25.00;39.70;;;;;;4926610;28;20058;-86
2021/06/20 01:45:56;;;;;;;7.35;2.78;;;25.00;39.60;;;;;;4924553;29;20039;-86
2021/06/20 01:48:23;;;;;;;5.75;2.60;;;25.10;39.50;;;;;;4908153;28;20113;-87
2021/06/20 01:50:49;;;;;;;4.70;2.70;;;25.20;39.50;;;;;;4939064;28;20092;-85
2021/06/20 01:53:16;;;;;;;6.72;3.17;;;25.20;39.40;;;;;;4876374;29;20039;-86
2021/06/20 01:55:45;;;;;;;3.97;2.83;;;25.20;39.30;;;;;;4892800;28;20046;-85
2021/06/20 01:58:14;;;;;;;5.20;3.17;;;25.30;39.40;;;;;;4910769;29;20062;-85
2021/06/20 02:00:47;;;;;;;4.65;2.80;;;25.40;39.50;;;;;;4914446;28;20061;-87
2021/06/20 02:03:25;;;;;;;8.45;6.03;;;25.40;40.70;;;;;;4892970;29;20042;-86
2021/06/20 02:05:52;;;;;;;6.10;5.47;;;25.40;39.40;;;;;;4898389;29;20054;-86
2021/06/20 02:08:19;;;;;;;7.00;3.30;;;25.50;39.30;;;;;;4897376;29;20413;-86
2021/06/20 02:10:55;;;;;;;6.80;3.30;;;25.60;40.50;;;;;;4944193;29;20541;-87
2021/06/20 02:13:27;;;;;;;6.38;3.38;;;25.80;39.30;;;;;;4912838;29;20038;-87
2021/06/20 02:15:54;;;;;;;3.28;2.90;;;26.20;39.20;;;;;;4897785;29;20038;-87
2021/06/20 02:18:20;;;;;;;6.38;2.80;;;26.80;38.40;;;;;;4927963;28;20046;-87
2021/06/20 02:20:46;;;;;;;3.13;2.83;;;27.40;37.60;;;;;;4913055;29;20548;-86
2021/06/20 02:23:13;;;;;;;4.68;2.55;;;27.90;36.50;;;;;;4897423;28;20092;-86
2021/06/20 02:25:41;;;;;;;5.75;3.20;;;28.50;35.40;;;;;;4945059;28;20049;-86
2021/06/20 02:28:08;;;;;;;4.47;2.80;;;29.00;34.30;;;;;;4944442;28;20072;-86
2021/06/20 02:30:34;;;;;;;6.13;2.63;;;29.60;33.40;;;;;;4930309;28;20049;-87
2021/06/20 02:33:00;;;;;;;3.60;2.80;;;30.10;32.10;;;;;;4928207;29;20052;-88
2021/06/20 02:35:27;;;;;;;5.55;3.00;;;30.50;31.10;;;;;;4911304;29;20096;-88
2021/06/20 02:37:54;;;;;;;3.00;2.67;;;31.00;30.50;;;;;;4944359;28;20050;-86
2021/06/20 02:40:21;;;;;;;3.58;2.90;;;31.40;29.60;;;;;;4944085;28;20051;-88
2021/06/20 02:42:47;;;;;;;4.10;2.85;;;31.80;28.90;;;;;;4948017;28;20030;-87
2021/06/20 02:45:19;;;;;;;4.22;2.60;;;32.20;28.40;;;;;;4952300;28;20035;-87
2021/06/20 02:47:46;;;;;;;5.68;2.63;;;32.50;27.60;;;;;;4931096;29;20030;-86
2021/06/20 02:50:12;;;;;;;3.05;2.72;;;32.80;26.70;;;;;;4929262;29;20038;-87
2021/06/20 02:52:39;;;;;;;3.85;2.60;;;32.90;26.20;;;;;;4945277;29;20035;-87
2021/06/20 02:55:06;;;;;;;3.38;2.63;;;33.00;26.00;;;;;;4912149;28;20129;-87
2021/06/20 02:57:32;;;;;;;2.70;2.47;;;32.90;25.50;;;;;;4930381;29;20053;-86
2021/06/20 03:00:01;;;;;;;4.75;2.90;;;32.80;25.50;;;;;;4902169;28;20073;-88
2021/06/20 03:02:28;;;;;;;3.10;2.78;;;32.50;25.70;;;;;;4917527;29;20042;-88
2021/06/20 03:04:54;;;;;;;6.70;2.63;;;32.40;25.70;;;;;;4928459;29;20030;-88
2021/06/20 03:07:21;;;;;;;3.50;3.20;;;32.20;26.20;;;;;;4912055;28;20068;-87
2021/06/20 03:09:47;;;;;;;5.63;2.72;;;32.00;26.60;;;;;;4897090;29;20049;-87
2021/06/20 03:12:14;;;;;;;3.85;2.78;;;31.60;26.90;;;;;;4901220;28;20512;-87
2021/06/20 03:14:40;;;;;;;7.45;3.55;;;31.30;27.40;;;;;;4885463;28;20080;-86
2021/06/20 03:17:07;;;;;;;3.38;3.08;;;31.00;28.00;;;;;;4932514;29;20057;-87
2021/06/20 03:19:34;;;;;;;5.03;3.10;;;30.70;28.30;;;;;;4915747;29;20041;-87
2021/06/20 03:22:01;;;;;;;4.15;3.30;;;30.40;28.70;;;;;;4911069;29;20038;-87
2021/06/20 03:24:35;;;;;;;7.57;3.40;;;30.20;29.10;;;;;;4910810;28;20041;-87
2021/06/20 03:27:02;;;;;;;7.57;3.28;;;30.00;29.40;;;;;;4913045;29;20049;-87
2021/06/20 03:29:28;;;;;;;5.20;3.60;;;29.80;29.70;;;;;;4910258;29;20117;-86
2021/06/20 03:31:54;;;;;;;;;;;29.60;30.00;;;;;;4926580;28;20039;-90
2021/06/20 03:34:21;;;;;;;8.13;3.58;;;29.50;30.10;;;;;;4925768;29;19941;-85
2021/06/20 03:36:47;;;;;;;4.65;3.08;;;29.40;30.70;;;;;;4909469;29;20091;-87
2021/06/20 03:39:14;;;;;;;8.82;4.68;;;29.40;31.20;;;;;;4893235;29;20092;-83
2021/06/20 03:41:40;;;;;;;4.78;3.72;;;29.30;31.50;;;;;;4940563;28;20031;-84
2021/06/20 03:44:07;;;;;;;7.05;3.40;;;29.30;31.50;;;;;;4897727;29;20034;-85
2021/06/20 03:46:37;;;;;;;8.82;4.40;;;29.20;31.60;;;;;;4941489;28;20075;-85
2021/06/20 03:49:03;;;;;;;5.00;3.55;;;29.30;31.80;;;;;;4959609;28;20608;-84
2021/06/20 03:51:30;;;;;;;7.13;4.07;;;29.30;31.80;;;;;;4927484;28;20030;-85
2021/06/20 03:53:57;;;;;;;7.97;4.22;;;29.30;32.00;;;;;;4920861;28;20459;-85
2021/06/20 03:56:23;;;;;;;6.55;4.00;;;29.30;32.10;;;;;;4940592;28;20081;-87
2021/06/20 03:58:49;;;;;;;9.27;4.18;;;29.30;32.20;;;;;;5030018;28;20097;-84
2021/06/20 04:01:15;;;;;;;;;;;29.40;32.20;;;;;;4962632;28;20122;-86
2021/06/20 04:03:42;;;;;;;8.43;4.53;;;29.40;32.10;;;;;;4944817;28;19929;-86
2021/06/20 04:06:08;;;;;;;8.40;4.03;;;29.50;32.00;;;;;;4943561;28;20094;-88
2021/06/20 04:08:35;;;;;;;7.85;4.10;;;29.60;32.10;;;;;;4911641;28;20034;-87
2021/06/20 04:11:01;;;;;;;;;;;29.70;32.00;;;;;;4960809;28;20094;-85
2021/06/20 04:13:27;;;;;;;5.97;3.97;;;29.80;31.90;;;;;;4959178;28;20008;-85
2021/06/20 04:15:53;;;;;;;;;;;29.90;31.50;;;;;;4912727;28;20421;-85
2021/06/20 04:18:19;;;;;;;8.80;4.10;;;30.00;31.50;;;;;;4900560;28;20450;-85
2021/06/20 04:20:46;;;;;;;5.50;4.20;;;30.10;31.30;;;;;;4924852;28;20456;-86
2021/06/20 04:23:12;;;;;;;5.80;4.18;;;30.10;31.30;;;;;;4923990;29;20050;-84
2021/06/20 04:25:38;;;;;;;5.13;4.22;;;30.20;31.10;;;;;;4892049;29;20034;-84
2021/06/20 04:28:05;;;;;;;6.90;4.25;;;30.30;31.00;;;;;;4894546;29;20046;-91
2021/06/20 04:30:31;;;;;;;10.15;4.53;;;30.30;30.80;;;;;;4895814;28;20434;-89
2021/06/20 04:32:59;;;;;;;;;;;30.40;30.90;;;;;;4925748;29;20034;-89
2021/06/20 04:35:25;;;;;;;9.02;4.07;;;30.40;30.80;;;;;;4910508;28;19961;-88
2021/06/20 04:37:51;;;;;;;7.60;4.45;;;30.60;30.70;;;;;;4910398;29;20038;-88
2021/06/20 04:40:22;;;;;;;8.25;4.50;;;30.70;30.50;;;;;;4913921;29;20474;-89
2021/06/20 04:42:58;;;;;;;10.68;4.38;;;30.90;30.40;;;;;;4913645;29;20038;-89
2021/06/20 04:45:24;;;;;;;5.88;4.53;;;31.00;30.10;;;;;;4935510;28;20083;-89
2021/06/20 04:47:50;;;;;;;9.18;4.82;;;31.20;30.00;;;;;;4941893;28;20049;-90
2021/06/20 04:50:17;;;;;;;7.28;4.65;;;31.60;29.70;;;;;;4931291;28;20057;-89
2021/06/20 04:52:43;;;;;;;5.70;3.95;;;32.80;28.90;;;;;;4939843;28;20041;-86
2021/06/20 04:55:10;;;;;;;5.65;4.18;;;33.90;27.30;;;;;;4924280;29;20046;-88
2021/06/20 04:57:39;;;;;;;10.23;3.70;;;34.60;26.30;;;;;;4907347;28;20106;-94
2021/06/20 05:00:07;;;;;;;7.15;3.97;;;35.40;25.50;;;;;;4915977;28;20045;-87
2021/06/20 05:02:33;;;;;;;6.47;3.90;;;36.80;24.20;;;;;;4942855;28;20053;-88
2021/06/20 05:05:00;;;;;;;8.27;3.65;;;38.40;22.00;;;;;;4912762;28;20042;-88
2021/06/20 05:07:27;;;;;;;5.57;3.30;;;40.10;20.20;;;;;;4935186;28;20039;-87
2021/06/20 05:09:53;;;;;;;8.10;3.30;;;41.60;18.30;;;;;;4905882;28;20030;-88
2021/06/20 05:12:20;;;;;;;3.85;3.50;;;43.00;16.70;;;;;;4929077;28;20564;-87
2021/06/20 05:14:46;;;;;;;6.45;3.60;;;44.20;15.20;;;;;;4923619;28;20038;-89
2021/06/20 05:17:14;;;;;;;3.63;3.15;;;45.30;14.00;;;;;;4904908;28;20041;-88
2021/06/20 05:19:41;;;;;;;5.78;3.22;;;46.30;12.80;;;;;;4951530;28;20088;-89
2021/06/20 05:22:09;;;;;;;5.28;3.55;;;46.90;12.10;;;;;;4952164;28;20042;-88
2021/06/20 05:24:37;;;;;;;7.80;3.35;;;47.60;11.60;;;;;;4945310;28;20045;-93
2021/06/20 05:27:04;;;;;;;5.00;3.03;;;48.30;11.00;;;;;;4939022;28;20427;-88
2021/06/20 05:29:30;;;;;;;3.25;2.95;;;48.90;10.20;;;;;;4934832;28;20038;-88
2021/06/20 05:31:56;;;;;;;8.02;3.08;;;49.50;9.70;;;;;;4950753;28;20105;-90
2021/06/20 05:34:23;;;;;;;4.53;2.70;;;49.90;9.20;;;;;;4926112;28;20448;-89
2021/06/20 05:36:49;;;;;;;3.38;2.90;;;50.30;8.50;;;;;;4949108;28;20108;-88
2021/06/20 05:39:15;;;;;;;6.88;3.40;;;50.40;8.80;;;;;;4928739;28;20041;-89
2021/06/20 05:41:42;;;;;;;5.72;2.80;;;50.40;8.60;;;;;;4955616;28;20567;-89
2021/06/20 05:44:08;;;;;;;6.28;2.88;;;50.70;8.40;;;;;;4951409;28;20038;-89
2021/06/20 05:46:35;;;;;;;3.58;2.90;;;51.10;8.30;;;;;;4953764;28;20039;-89
2021/06/20 05:49:01;;;;;;;3.83;3.50;;;51.50;7.60;;;;;;4954300;28;20062;-90
2021/06/20 05:51:27;;;;;;;6.97;3.30;;;51.50;7.20;;;;;;4936733;28;20038;-89
2021/06/20 05:53:54;;;;;;;4.22;3.40;;;51.30;7.40;;;;;;4940274;28;20046;-89
2021/06/20 05:56:20;;;;;;;4.57;3.20;;;51.60;7.50;;;;;;4937145;28;20110;-89
2021/06/20 05:58:48;;;;;;;5.28;3.10;;;52.00;7.30;;;;;;4922364;28;20054;-88
2021/06/20 06:01:14;;;;;;;6.95;3.30;;;52.20;7.00;;;;;;4925137;28;20034;-89
2021/06/20 06:03:41;;;;;;;8.13;3.15;;;52.50;6.70;;;;;;4956282;28;20035;-88
2021/06/20 06:06:07;;;;;;;4.88;3.20;;;52.50;6.50;;;;;;4943314;28;20049;-88
2021/06/20 06:08:33;;;;;;;5.50;2.90;;;52.80;6.60;;;;;;4956292;28;20408;-90
2021/06/20 06:10:59;;;;;;;6.53;3.10;;;53.10;6.30;;;;;;4971238;28;20121;-90
2021/06/20 06:13:26;;;;;;;3.88;3.05;;;53.50;6.00;;;;;;4942960;28;20066;-90
2021/06/20 06:15:52;;;;;;;3.75;3.13;;;53.90;5.90;;;;;;4939463;28;20034;-88
2021/06/20 06:18:18;;;;;;;8.77;3.47;;;54.30;5.50;;;;;;4935963;28;20037;-90
2021/06/20 06:20:44;;;;;;;3.53;2.85;;;54.60;5.20;;;;;;4937804;28;20038;-89
2021/06/20 06:23:12;;;;;;;4.25;3.00;;;55.00;5.00;;;;;;4907975;28;20084;-90
2021/06/20 06:25:41;;;;;;;5.95;3.08;;;55.20;4.70;;;;;;4934813;28;20042;-91
2021/06/20 06:28:07;;;;;;;4.80;3.20;;;55.50;4.50;;;;;;4933341;28;20034;-90
2021/06/20 06:30:33;;;;;;;3.50;2.90;;;55.80;4.30;;;;;;4950696;28;20054;-88
2021/06/20 06:33:00;;;;;;;5.50;3.20;;;56.00;3.70;;;;;;4913461;29;20061;-87
2021/06/20 06:35:26;;;;;;;6.03;3.20;;;55.60;4.10;;;;;;4929503;29;20034;-89
2021/06/20 06:37:52;;;;;;;4.55;3.05;;;55.50;5.30;;;;;;4929499;29;20038;-89
2021/06/20 06:40:19;;;;;;;3.50;3.20;;;55.50;4.00;;;;;;4913658;28;20480;-90
2021/06/20 06:42:45;;;;;;;3.67;2.83;;;55.40;4.20;;;;;;4928976;29;20533;-87
2021/06/20 06:45:16;;;;;;;9.18;3.30;;;55.70;4.10;;;;;;4912782;28;20046;-92
2021/06/20 06:47:43;;;;;;;4.07;2.88;;;55.90;3.90;;;;;;4913611;29;20096;-90
2021/06/20 06:50:09;;;;;;;4.63;3.08;;;56.20;3.70;;;;;;4944587;28;20061;-89
2021/06/20 06:52:36;;;;;;;10.23;3.63;;;56.30;3.30;;;;;;4944394;29;20035;-87
2021/06/20 06:55:04;;;;;;;7.70;3.42;;;55.90;3.50;;;;;;4898589;28;20054;-89
2021/06/20 06:57:31;;;;;;;6.72;5.95;;;55.50;4.00;;;;;;4928856;29;20042;-86
2021/06/20 06:59:58;;;;;;;6.20;3.38;;;55.30;4.00;;;;;;4954528;28;20076;-88
2021/06/20 07:02:25;;;;;;;4.47;3.50;;;55.40;3.80;;;;;;4939342;28;20042;-88
2021/06/20 07:04:51;;;;;;;5.10;3.20;;;55.70;3.70;;;;;;4924842;28;20038;-89
2021/06/20 07:07:17;;;;;;;3.65;3.03;;;56.00;3.40;;;;;;4912224;28;20039;-88
2021/06/20 07:09:43;;;;;;;7.35;3.28;;;56.00;3.30;;;;;;4908818;28;20061;-88
2021/06/20 07:12:10;;;;;;;6.72;3.33;;;56.10;3.40;;;;;;4930565;29;20047;-89
2021/06/20 07:14:37;;;;;;;5.53;2.95;;;56.40;2.70;;;;;;4929449;29;20046;-90
2021/06/20 07:17:04;;;;;;;10.10;3.40;;;56.70;2.70;;;;;;4932865;29;20034;-89
2021/06/20 07:19:31;;;;;;;5.53;3.08;;;57.00;2.70;;;;;;4901878;28;20069;-89
2021/06/20 07:21:57;;;;;;;10.43;3.10;;;57.20;2.40;;;;;;4945230;29;20064;-88
2021/06/20 07:24:23;;;;;;;9.30;3.42;;;57.70;2.40;;;;;;4982024;28;20143;-88
2021/06/20 07:26:50;;;;;;;7.35;3.35;;;58.10;2.00;;;;;;4896649;28;20035;-89
2021/06/20 07:29:16;;;;;;;5.05;3.10;;;58.60;1.60;;;;;;4914676;28;20035;-88
2021/06/20 07:31:42;;;;;;;3.28;2.90;;;59.10;1.30;;;;;;4894965;29;20062;-92
2021/06/20 07:34:09;;;;;;;5.47;2.70;;;59.20;1.00;;;;;;4912976;28;20054;-88
2021/06/20 07:36:35;;;;;;;4.55;2.80;;;58.80;1.00;;;;;;4940971;28;20038;-88
2021/06/20 07:39:03;;;;;;;5.57;2.88;;;58.30;1.30;;;;;;4910100;28;20069;-88
2021/06/20 07:41:29;;;;;;;6.72;3.00;;;58.00;1.60;;;;;;4910582;28;20049;-88
2021/06/20 07:43:55;;;;;;;4.95;3.35;;;58.00;1.70;;;;;;4941866;28;20525;-87
2021/06/20 07:46:21;;;;;;;4.15;2.80;;;58.10;1.30;;;;;;4910042;29;20030;-88
2021/06/20 07:48:48;;;;;;;3.28;2.70;;;58.20;1.00;;;;;;4910871;29;20116;-88
2021/06/20 07:51:14;;;;;;;7.00;2.83;;;58.00;1.20;;;;;;4878333;28;20487;-88
2021/06/20 07:53:40;;;;;;;8.27;3.28;;;57.50;1.30;;;;;;4926109;28;20515;-88
2021/06/20 07:56:07;;;;;;;5.07;3.78;;;57.40;1.30;;;;;;4896120;29;20080;-90
2021/06/20 07:58:33;;;;;;;3.30;2.70;;;57.50;1.20;;;;;;4899945;28;20030;-91
2021/06/20 08:00:59;;;;;;;4.45;3.05;;;57.80;1.00;;;;;;4942169;28;20038;-87
2021/06/20 08:03:27;;;;;;;5.55;3.00;;;57.90;1.00;;;;;;4927695;28;20113;-90
2021/06/20 08:05:53;;;;;;;7.07;3.15;;;58.00;1.00;;;;;;4925821;28;20038;-86
2021/06/20 08:08:20;;;;;;;4.13;2.65;;;58.30;1.00;;;;;;4941706;29;20030;-86
2021/06/20 08:10:46;;;;;;;4.72;3.00;;;57.60;1.00;;;;;;4911119;28;20526;-87
2021/06/20 08:13:16;;;;;;;6.43;3.22;;;56.40;1.60;;;;;;4924688;29;20038;-88
2021/06/20 08:15:43;;;;;;;5.80;2.80;;;56.10;2.00;;;;;;4914183;29;20064;-88
2021/06/20 08:18:11;;;;;;;4.50;2.53;;;56.20;1.70;;;;;;4952128;28;20082;-88
2021/06/20 08:21:00;;;;;;;5.93;2.90;;;56.40;1.70;;;;;;4989450;28;20061;-86
2021/06/20 08:23:26;;;;;;;5.85;3.13;;;56.40;1.80;;;;;;4933706;28;20061;-86
2021/06/20 08:25:52;;;;;;;2.80;2.60;;;56.40;1.80;;;;;;4932351;28;20062;-91
2021/06/20 08:28:22;;;;;;;4.35;3.30;;;56.50;1.70;;;;;;4911199;29;20039;-87
2021/06/20 08:30:49;;;;;;;8.85;3.00;;;56.70;1.50;;;;;;4925692;28;20061;-88
2021/06/20 08:33:16;;;;;;;6.38;3.42;;;56.60;1.40;;;;;;4941183;29;20099;-87
2021/06/20 08:35:42;;;;;;;3.47;2.95;;;56.60;1.50;;;;;;4910411;29;20057;-90
2021/06/20 08:38:08;;;;;;;4.57;3.00;;;56.90;1.20;;;;;;4924873;28;20432;-88
2021/06/20 08:40:35;;;;;;;6.00;3.17;;;57.00;1.00;;;;;;4926313;28;20042;-89
2021/06/20 08:43:01;;;;;;;4.82;2.90;;;56.90;1.00;;;;;;4925778;29;20049;-89
2021/06/20 08:45:27;;;;;;;4.40;4.05;;;56.80;1.50;;;;;;4925509;29;20421;-89
2021/06/20 08:47:54;;;;;;;6.60;2.92;;;57.00;1.40;;;;;;4909643;29;20053;-88
2021/06/20 08:50:20;;;;;;;8.70;3.35;;;57.20;1.10;;;;;;4925933;28;20042;-89
2021/06/20 08:52:49;;;;;;;6.13;3.35;;;57.20;1.10;;;;;;4894368;28;20549;-86
2021/06/20 08:55:15;;;;;;;3.72;3.42;;;57.10;1.10;;;;;;4941454;28;20055;-87
2021/06/20 08:57:42;;;;;;;6.07;3.10;;;57.10;1.00;;;;;;4911772;29;20043;-87
2021/06/20 09:00:13;;;;;;;4.05;3.00;;;57.10;1.20;;;;;;4945448;29;20072;-88
2021/06/20 09:02:40;;;;;;;6.30;2.90;;;57.30;1.10;;;;;;4946314;29;20041;-87
2021/06/20 09:05:10;;;;;;;4.30;3.20;;;57.70;1.00;;;;;;4933106;29;20054;-88
2021/06/20 09:07:40;;;;;;;5.30;3.22;;;57.40;1.00;;;;;;4932347;29;20116;-87
2021/06/20 09:10:18;;;;;;;4.75;3.10;;;57.20;1.10;;;;;;4896778;28;20529;-89
2021/06/20 09:12:50;;;;;;;3.13;2.60;;;57.00;1.30;;;;;;4914412;28;20042;-89
2021/06/20 09:15:19;;;;;;;5.63;3.42;;;56.90;1.30;;;;;;4934471;28;20042;-88
2021/06/20 09:17:57;;;;;;;6.43;3.10;;;56.80;1.40;;;;;;4951525;28;20038;-86
2021/06/20 09:20:39;;;;;;;7.13;3.25;;;56.90;1.30;;;;;;4930676;28;20038;-85
2021/06/20 09:23:10;;;;;;;5.72;2.85;;;57.10;1.20;;;;;;4946719;28;20721;-85
2021/06/20 09:25:42;;;;;;;7.65;3.15;;;57.30;1.00;;;;;;4960366;28;20038;-86
2021/06/20 09:28:10;;;;;;;6.10;3.20;;;57.40;1.00;;;;;;4942422;28;20125;-85
2021/06/20 09:30:51;;;;;;;3.05;2.83;;;57.30;1.00;;;;;;4895094;28;20039;-84
2021/06/20 09:33:17;;;;;;;3.45;3.15;;;57.30;1.00;;;;;;4942282;29;20038;-85
2021/06/20 09:35:48;;;;;;;4.97;3.10;;;57.30;1.10;;;;;;4911090;29;20045;-85
2021/06/20 09:38:29;;;;;;;4.75;3.10;;;57.60;1.00;;;;;;4927308;29;20630;-86
2021/06/20 09:41:04;;;;;;;5.03;2.60;;;57.80;1.00;;;;;;4943198;28;20057;-87
2021/06/20 09:43:32;;;;;;;6.20;3.35;;;57.90;1.00;;;;;;4928612;29;20046;-87
2021/06/20 09:45:59;;;;;;;4.65;2.80;;;57.70;1.00;;;;;;4911750;28;20058;-87
2021/06/20 09:48:35;;;;;;;2.72;2.53;;;57.30;1.60;;;;;;4944571;29;20030;-88
2021/06/20 09:51:19;;;;;;;5.45;3.20;;;57.00;1.00;;;;;;4952552;28;20067;-88
2021/06/20 09:53:48;;;;;;;6.00;3.15;;;56.40;1.00;;;;;;4937777;28;20053;-87
2021/06/20 09:56:28;;;;;;;4.65;2.97;;;55.80;1.10;;;;;;4956641;28;20046;-87
2021/06/20 09:59:06;;;;;;;4.95;3.25;;;55.30;1.50;;;;;;4941634;28;20053;-87
2021/06/20 10:01:35;;;;;;;4.88;2.95;;;54.20;1.80;;;;;;4949400;28;20038;-87
2021/06/20 10:04:01;;;;;;;6.53;3.00;;;52.70;2.50;;;;;;4932052;28;20513;-86
2021/06/20 10:06:28;;;;;;;5.22;3.08;;;51.30;3.70;;;;;;4964370;28;20034;-86
2021/06/20 10:08:54;;;;;;;4.38;3.42;;;49.80;4.50;;;;;;4971436;28;20102;-89
2021/06/20 10:11:20;;;;;;;5.95;3.15;;;48.30;5.60;;;;;;4919570;28;20421;-89
2021/06/20 10:13:47;;;;;;;5.70;3.33;;;46.90;6.90;;;;;;4913117;29;20061;-87
2021/06/20 10:16:32;;;;;;;4.03;3.28;;;45.90;7.90;;;;;;4911389;29;20593;-86
2021/06/20 10:19:14;;;;;;;3.60;3.30;;;44.90;9.00;;;;;;4927154;29;20034;-88
2021/06/20 10:21:46;;;;;;;5.90;3.22;;;44.10;9.80;;;;;;4910862;28;20521;-88
2021/06/20 10:24:15;;;;;;;8.85;3.45;;;43.40;10.40;;;;;;4944548;28;20038;-87
2021/06/20 10:29:27;;;;;;;4.70;3.17;;;42.30;11.50;;;;;;4405389;32;471560;-86
2021/06/20 10:31:54;;;;;;;6.00;3.30;;;41.70;11.90;;;;;;5120283;27;20031;-87
2021/06/20 10:34:28;;;;;;;5.32;3.92;;;41.20;12.40;;;;;;5118910;28;20529;-86
2021/06/20 10:37:18;;;;;;;4.15;3.55;;;40.70;12.90;;;;;;5069594;28;20129;-87
2021/06/20 10:39:52;;;;;;;3.95;3.30;;;40.30;13.80;;;;;;5119752;28;20034;-86
2021/06/20 10:42:18;;;;;;;3.80;3.47;;;40.10;14.30;;;;;;5095564;28;20532;-89
2021/06/20 10:44:53;;;;;;;4.07;3.33;;;39.90;14.40;;;;;;5075590;28;20062;-87
2021/06/20 10:47:40;;;;;;;6.05;3.60;;;39.70;14.60;;;;;;5087845;28;20034;-87
2021/06/20 10:50:14;;;;;;;7.95;3.88;;;39.40;14.80;;;;;;5066468;28;20036;-90
2021/06/20 10:53:01;;;;;;;4.50;3.60;;;39.30;14.90;;;;;;5069191;28;20125;-89
2021/06/20 10:55:44;;;;;;;4.00;3.60;;;39.10;15.20;;;;;;5084344;28;20035;-88
2021/06/20 10:58:28;;;;;;;3.88;3.55;;;38.90;15.80;;;;;;5085512;28;20073;-89
2021/06/20 11:01:15;;;;;;;5.03;3.63;;;38.90;15.60;;;;;;5055731;28;20109;-88
2021/06/20 11:04:06;;;;;;;4.10;3.67;;;38.90;15.70;;;;;;5088791;28;20039;-89
2021/06/20 11:06:32;;;;;;;4.10;3.60;;;38.80;15.80;;;;;;5086249;28;20560;-90
2021/06/20 11:09:00;;;;;;;4.30;3.30;;;38.80;15.90;;;;;;5052923;28;20063;-91
2021/06/20 11:11:48;;;;;;;4.65;3.47;;;38.70;15.90;;;;;;5082815;28;20050;-91
2021/06/20 11:14:14;;;;;;;6.32;4.13;;;38.60;16.20;;;;;;5077967;28;20107;-92
2021/06/20 11:16:43;;;;;;;7.93;3.80;;;38.40;16.40;;;;;;5099665;28;20091;-89
2021/06/20 11:24:46;;;;;;;7.60;5.28;;;38.20;16.50;;;;;;4351654;32;20122;-92
2021/06/20 11:27:21;;;;;;;4.40;3.92;;;38.10;17.00;;;;;;5028705;28;20040;-91
2021/06/20 11:29:55;;;;;;;5.50;3.70;;;38.00;16.30;;;;;;5008506;28;20040;-88
2021/06/20 11:32:24;;;;;;;3.95;3.55;;;37.80;16.40;;;;;;5005374;28;20532;-92
2021/06/20 11:35:20;;;;;;;7.53;3.80;;;37.70;16.70;;;;;;5006977;28;20117;-88
2021/06/20 11:37:53;;;;;;;9.13;3.10;;;37.60;17.00;;;;;;5014380;28;20108;-88
2021/06/20 11:40:22;;;;;;;7.07;3.95;;;37.60;16.80;;;;;;5020094;28;20044;-90
2021/06/20 11:42:56;;;;;;;7.70;3.53;;;37.50;16.80;;;;;;4992667;28;20037;-90
2021/06/20 11:45:30;;;;;;;13.20;4.40;;;37.40;16.90;;;;;;4979132;28;20047;-92
2021/06/20 11:47:59;;;;;;;10.77;5.32;;;37.30;17.00;;;;;;4991987;28;20079;-89
2021/06/20 11:50:33;;;;;;;4.15;3.50;;;37.30;17.00;;;;;;4976302;28;20037;-89
2021/06/20 11:53:05;;;;;;;4.57;3.30;;;37.20;17.00;;;;;;5014433;28;20071;-90
2021/06/20 11:55:33;;;;;;;4.03;3.25;;;37.10;18.10;;;;;;4999154;28;20106;-89
2021/06/20 11:58:15;;;;;;;5.00;3.88;;;36.90;17.50;;;;;;5017164;28;20043;-90
2021/06/20 12:00:44;;;;;;;3.53;3.20;;;36.90;17.60;;;;;;4998782;28;20045;-89
2021/06/20 12:03:20;;;;;;;8.77;4.13;;;36.70;17.50;;;;;;4990207;28;20037;-91
2021/06/20 12:06:01;;;;;;;9.88;4.15;;;36.60;17.60;;;;;;5007720;28;20038;-88
2021/06/20 12:08:46;;;;;;;7.97;4.60;;;36.40;17.90;;;;;;5014893;28;20170;-89
2021/06/20 12:11:12;;;;;;;4.13;3.80;;;36.30;18.30;;;;;;5007238;28;20528;-91
2021/06/20 12:13:42;;;;;;;6.53;3.70;;;36.30;18.50;;;;;;5016644;28;20044;-90
2021/06/20 12:16:08;;;;;;;5.57;5.05;;;36.30;18.50;;;;;;5001301;28;20092;-90
2021/06/20 12:18:34;;;;;;;5.25;3.67;;;36.20;18.70;;;;;;4999755;28;20044;-90
2021/06/20 12:21:01;;;;;;;5.35;3.90;;;36.20;18.60;;;;;;5004187;28;20542;-90
2021/06/20 12:23:33;;;;;;;6.80;4.07;;;36.00;18.60;;;;;;4990623;28;20049;-88
2021/06/20 12:25:59;;;;;;;6.55;4.70;;;36.00;18.90;;;;;;5024159;28;20057;-88
2021/06/20 12:28:26;;;;;;;4.50;3.80;;;35.90;19.20;;;;;;4987749;28;20099;-90
2021/06/20 12:30:54;;;;;;;6.20;4.03;;;35.80;19.30;;;;;;4985091;28;20041;-89
2021/06/20 12:33:25;;;;;;;4.80;4.00;;;35.80;19.40;;;;;;5001232;28;20060;-91
2021/06/20 12:36:01;;;;;;;6.07;3.65;;;35.80;19.60;;;;;;4986823;28;20056;-89
2021/06/20 12:38:29;;;;;;;7.78;3.97;;;35.70;19.50;;;;;;4969234;28;20056;-88
2021/06/20 12:40:56;;;;;;;4.28;3.70;;;35.70;19.70;;;;;;4985738;28;20048;-89
2021/06/20 12:43:24;;;;;;;8.43;4.05;;;35.60;19.60;;;;;;4974816;28;20164;-90
2021/06/20 12:46:07;;;;;;;5.90;3.97;;;35.60;19.70;;;;;;4988759;28;20404;-90
2021/06/20 12:48:38;;;;;;;5.97;3.80;;;35.60;19.80;;;;;;4972864;28;20080;-89
2021/06/20 12:51:06;;;;;;;5.25;3.90;;;35.60;19.80;;;;;;4973616;28;20037;-88
2021/06/20 12:53:34;;;;;;;6.70;4.00;;;35.50;19.60;;;;;;4957865;28;20067;-89
2021/06/20 12:56:02;;;;;;;8.25;3.85;;;35.50;19.50;;;;;;4974895;28;20037;-89
2021/06/20 12:58:29;;;;;;;4.85;3.63;;;35.40;19.70;;;;;;4956927;28;20044;-91
2021/06/20 13:01:05;;;;;;;9.23;3.80;;;35.30;19.90;;;;;;5012421;28;20059;-89
2021/06/20 13:03:33;;;;;;;4.05;3.60;;;35.30;19.90;;;;;;5020574;28;20037;-90
2021/06/20 13:06:15;;;;;;;7.30;3.90;;;35.30;20.00;;;;;;5032239;28;20037;-89
2021/06/20 13:08:41;;;;;;;4.88;3.90;;;35.30;20.10;;;;;;5043426;28;20045;-89